sensor_id;sensor_type;location;lat;lon;timestamp;P1;durP1;ratioP1;P2;durP2;ratioP2
8632;SDS011;4354;49.832;10.746;2023-11-19T00:00:07;7.37;;;6.63;;
8632;SDS011;4354;49.832;10.746;2023-11-19T00:02:39;11.20;;;6.60;;
8632;SDS011;4354;49.832;10.746;2023-11-19T00:05:07;7.57;;;6.87;;
8632;SDS011;4354;49.832;10.746;2023-11-19T00:07:35;7.60;;;6.80;;
8632;SDS011;4354;49.832;10.746;2023-11-19T00:10:03;6.97;;;6.30;;
8632;SDS011;4354;49.832;10.746;2023-11-19T00:12:33;6.83;;;5.87;;
8632;SDS011;4354;49.832;10.746;2023-11-19T00:15:00;6.23;;;5.63;;
8632;SDS011;4354;49.832;10.746;2023-11-19T00:17:27;6.17;;;5.57;;
8632;SDS011;4354;49.832;10.746;2023-11-19T00:19:54;6.60;;;5.83;;
8632;SDS011;4354;49.832;10.746;2023-11-19T00:22:20;8.23;;;7.43;;
8632;SDS011;4354;49.832;10.746;2023-11-19T00:24:48;7.07;;;6.37;;
8632;SDS011;4354;49.832;10.746;2023-11-19T00:27:15;7.57;;;6.80;;
8632;SDS011;4354;49.832;10.746;2023-11-19T00:29:42;5.80;;;5.27;;
8632;SDS011;4354;49.832;10.746;2023-11-19T00:32:08;6.87;;;5.40;;
8632;SDS011;4354;49.832;10.746;2023-11-19T00:34:35;5.73;;;5.20;;
8632;SDS011;4354;49.832;10.746;2023-11-19T00:37:02;6.90;;;5.90;;
8632;SDS011;4354;49.832;10.746;2023-11-19T00:39:30;6.83;;;6.13;;
8632;SDS011;4354;49.832;10.746;2023-11-19T00:41:56;6.10;;;5.50;;
8632;SDS011;4354;49.832;10.746;2023-11-19T00:44:23;5.40;;;4.90;;
8632;SDS011;4354;49.832;10.746;2023-11-19T00:46:50;6.00;;;5.37;;
8632;SDS011;4354;49.832;10.746;2023-11-19T00:49:17;5.57;;;5.07;;
8632;SDS011;4354;49.832;10.746;2023-11-19T00:51:44;6.33;;;4.70;;
8632;SDS011;4354;49.832;10.746;2023-11-19T00:54:12;6.27;;;5.30;;
8632;SDS011;4354;49.832;10.746;2023-11-19T00:56:38;6.00;;;5.40;;
8632;SDS011;4354;49.832;10.746;2023-11-19T00:59:06;7.37;;;5.90;;
8632;SDS011;4354;49.832;10.746;2023-11-19T01:01:34;5.97;;;5.37;;
8632;SDS011;4354;49.832;10.746;2023-11-19T01:04:00;6.00;;;5.40;;
8632;SDS011;4354;49.832;10.746;2023-11-19T01:06:31;6.97;;;6.23;;
8632;SDS011;4354;49.832;10.746;2023-11-19T01:08:58;7.60;;;6.80;;
8632;SDS011;4354;49.832;10.746;2023-11-19T01:11:25;7.03;;;6.33;;
8632;SDS011;4354;49.832;10.746;2023-11-19T01:13:52;8.17;;;6.30;;
8632;SDS011;4354;49.832;10.746;2023-11-19T01:16:19;6.30;;;5.70;;
8632;SDS011;4354;49.832;10.746;2023-11-19T01:18:47;6.50;;;5.90;;
8632;SDS011;4354;49.832;10.746;2023-11-19T01:21:23;7.03;;;6.03;;
8632;SDS011;4354;49.832;10.746;2023-11-19T01:23:49;6.80;;;6.10;;
8632;SDS011;4354;49.832;10.746;2023-11-19T01:26:16;6.87;;;6.17;;
8632;SDS011;4354;49.832;10.746;2023-11-19T01:28:43;6.27;;;5.67;;
8632;SDS011;4354;49.832;10.746;2023-11-19T01:31:16;6.40;;;5.73;;
8632;SDS011;4354;49.832;10.746;2023-11-19T01:33:43;7.23;;;6.43;;
8632;SDS011;4354;49.832;10.746;2023-11-19T01:36:12;6.97;;;6.27;;
8632;SDS011;4354;49.832;10.746;2023-11-19T01:38:40;6.53;;;5.80;;
8632;SDS011;4354;49.832;10.746;2023-11-19T01:41:07;6.93;;;6.23;;
8632;SDS011;4354;49.832;10.746;2023-11-19T01:43:37;8.63;;;6.83;;
8632;SDS011;4354;49.832;10.746;2023-11-19T01:46:05;7.33;;;5.70;;
8632;SDS011;4354;49.832;10.746;2023-11-19T01:48:33;7.07;;;6.07;;
8632;SDS011;4354;49.832;10.746;2023-11-19T01:51:01;7.20;;;6.50;;
8632;SDS011;4354;49.832;10.746;2023-11-19T01:53:29;7.60;;;6.80;;
8632;SDS011;4354;49.832;10.746;2023-11-19T01:55:56;7.00;;;6.30;;
8632;SDS011;4354;49.832;10.746;2023-11-19T01:58:24;7.10;;;6.40;;
8632;SDS011;4354;49.832;10.746;2023-11-19T02:00:51;6.73;;;6.07;;
8632;SDS011;4354;49.832;10.746;2023-11-19T02:03:18;7.00;;;6.30;;
8632;SDS011;4354;49.832;10.746;2023-11-19T02:05:46;7.27;;;6.57;;
8632;SDS011;4354;49.832;10.746;2023-11-19T02:08:15;7.00;;;6.30;;
8632;SDS011;4354;49.832;10.746;2023-11-19T02:10:42;7.87;;;6.40;;
8632;SDS011;4354;49.832;10.746;2023-11-19T02:13:09;7.10;;;6.40;;
8632;SDS011;4354;49.832;10.746;2023-11-19T02:15:36;7.67;;;6.97;;
8632;SDS011;4354;49.832;10.746;2023-11-19T02:18:22;7.70;;;6.90;;
8632;SDS011;4354;49.832;10.746;2023-11-19T02:20:55;7.97;;;6.80;;
8632;SDS011;4354;49.832;10.746;2023-11-19T02:23:28;6.77;;;6.07;;
8632;SDS011;4354;49.832;10.746;2023-11-19T02:26:09;8.20;;;6.93;;
8632;SDS011;4354;49.832;10.746;2023-11-19T02:28:54;7.23;;;6.50;;
8632;SDS011;4354;49.832;10.746;2023-11-19T02:31:21;9.67;;;8.00;;
8632;SDS011;4354;49.832;10.746;2023-11-19T02:33:49;8.53;;;7.07;;
8632;SDS011;4354;49.832;10.746;2023-11-19T02:36:16;6.73;;;6.03;;
8632;SDS011;4354;49.832;10.746;2023-11-19T02:38:43;8.70;;;6.77;;
8632;SDS011;4354;49.832;10.746;2023-11-19T02:41:09;6.47;;;5.20;;
8632;SDS011;4354;49.832;10.746;2023-11-19T02:43:36;6.53;;;5.70;;
8632;SDS011;4354;49.832;10.746;2023-11-19T02:46:05;5.23;;;4.73;;
8632;SDS011;4354;49.832;10.746;2023-11-19T02:48:37;6.97;;;5.43;;
8632;SDS011;4354;49.832;10.746;2023-11-19T02:51:04;6.17;;;5.57;;
8632;SDS011;4354;49.832;10.746;2023-11-19T02:53:36;5.33;;;4.83;;
8632;SDS011;4354;49.832;10.746;2023-11-19T02:56:06;5.70;;;5.07;;
8632;SDS011;4354;49.832;10.746;2023-11-19T02:58:52;5.77;;;5.13;;
8632;SDS011;4354;49.832;10.746;2023-11-19T03:01:25;6.17;;;5.57;;
8632;SDS011;4354;49.832;10.746;2023-11-19T03:03:57;6.60;;;5.90;;
8632;SDS011;4354;49.832;10.746;2023-11-19T03:06:25;5.77;;;5.27;;
8632;SDS011;4354;49.832;10.746;2023-11-19T03:08:53;6.97;;;5.93;;
8632;SDS011;4354;49.832;10.746;2023-11-19T03:11:21;7.63;;;6.50;;
8632;SDS011;4354;49.832;10.746;2023-11-19T03:13:48;6.90;;;5.70;;
8632;SDS011;4354;49.832;10.746;2023-11-19T03:16:14;5.60;;;5.10;;
8632;SDS011;4354;49.832;10.746;2023-11-19T03:18:43;7.40;;;6.23;;
8632;SDS011;4354;49.832;10.746;2023-11-19T03:21:10;6.33;;;5.70;;
8632;SDS011;4354;49.832;10.746;2023-11-19T03:23:36;6.27;;;5.53;;
8632;SDS011;4354;49.832;10.746;2023-11-19T03:26:03;7.10;;;5.43;;
8632;SDS011;4354;49.832;10.746;2023-11-19T03:28:32;5.83;;;5.23;;
8632;SDS011;4354;49.832;10.746;2023-11-19T03:30:59;5.30;;;4.80;;
8632;SDS011;4354;49.832;10.746;2023-11-19T03:33:26;6.50;;;5.20;;
8632;SDS011;4354;49.832;10.746;2023-11-19T03:35:54;5.60;;;5.10;;
8632;SDS011;4354;49.832;10.746;2023-11-19T03:38:23;6.60;;;5.03;;
8632;SDS011;4354;49.832;10.746;2023-11-19T03:40:51;6.33;;;5.20;;
8632;SDS011;4354;49.832;10.746;2023-11-19T03:43:18;5.97;;;5.17;;
8632;SDS011;4354;49.832;10.746;2023-11-19T03:45:48;5.90;;;5.33;;
8632;SDS011;4354;49.832;10.746;2023-11-19T03:48:15;6.90;;;5.57;;
8632;SDS011;4354;49.832;10.746;2023-11-19T03:50:43;5.40;;;4.90;;
8632;SDS011;4354;49.832;10.746;2023-11-19T03:53:11;5.83;;;5.23;;
8632;SDS011;4354;49.832;10.746;2023-11-19T03:55:38;6.20;;;5.60;;
8632;SDS011;4354;49.832;10.746;2023-11-19T03:58:05;6.03;;;5.40;;
8632;SDS011;4354;49.832;10.746;2023-11-19T04:00:32;6.10;;;5.50;;
8632;SDS011;4354;49.832;10.746;2023-11-19T04:02:59;6.30;;;5.40;;
8632;SDS011;4354;49.832;10.746;2023-11-19T04:05:27;8.33;;;7.00;;
8632;SDS011;4354;49.832;10.746;2023-11-19T04:07:54;8.00;;;7.00;;
8632;SDS011;4354;49.832;10.746;2023-11-19T04:10:20;9.57;;;7.60;;
8632;SDS011;4354;49.832;10.746;2023-11-19T04:12:49;8.33;;;7.37;;
8632;SDS011;4354;49.832;10.746;2023-11-19T04:15:16;9.60;;;8.20;;
8632;SDS011;4354;49.832;10.746;2023-11-19T04:17:42;9.27;;;8.03;;
8632;SDS011;4354;49.832;10.746;2023-11-19T04:20:09;8.77;;;7.43;;
8632;SDS011;4354;49.832;10.746;2023-11-19T04:22:39;10.60;;;8.10;;
8632;SDS011;4354;49.832;10.746;2023-11-19T04:25:07;10.43;;;8.50;;
8632;SDS011;4354;49.832;10.746;2023-11-19T04:27:34;11.13;;;8.33;;
8632;SDS011;4354;49.832;10.746;2023-11-19T04:30:01;10.87;;;8.97;;
8632;SDS011;4354;49.832;10.746;2023-11-19T04:32:29;13.43;;;9.20;;
8632;SDS011;4354;49.832;10.746;2023-11-19T04:34:56;11.03;;;8.97;;
8632;SDS011;4354;49.832;10.746;2023-11-19T04:37:23;13.57;;;10.33;;
8632;SDS011;4354;49.832;10.746;2023-11-19T04:39:50;11.87;;;9.30;;
8632;SDS011;4354;49.832;10.746;2023-11-19T04:42:17;11.70;;;9.30;;
8632;SDS011;4354;49.832;10.746;2023-11-19T04:44:44;13.93;;;10.00;;
8632;SDS011;4354;49.832;10.746;2023-11-19T04:47:11;14.83;;;8.50;;
8632;SDS011;4354;49.832;10.746;2023-11-19T04:49:41;13.20;;;9.40;;
8632;SDS011;4354;49.832;10.746;2023-11-19T04:52:11;11.00;;;8.07;;
8632;SDS011;4354;49.832;10.746;2023-11-19T04:54:41;11.67;;;7.83;;
8632;SDS011;4354;49.832;10.746;2023-11-19T04:57:12;9.97;;;7.63;;
8632;SDS011;4354;49.832;10.746;2023-11-19T04:59:39;7.23;;;6.20;;
8632;SDS011;4354;49.832;10.746;2023-11-19T05:02:06;8.73;;;6.80;;
8632;SDS011;4354;49.832;10.746;2023-11-19T05:04:33;7.37;;;6.30;;
8632;SDS011;4354;49.832;10.746;2023-11-19T05:06:59;8.93;;;6.23;;
8632;SDS011;4354;49.832;10.746;2023-11-19T05:09:27;9.30;;;6.73;;
8632;SDS011;4354;49.832;10.746;2023-11-19T05:11:53;8.93;;;6.70;;
8632;SDS011;4354;49.832;10.746;2023-11-19T05:14:20;9.07;;;6.27;;
8632;SDS011;4354;49.832;10.746;2023-11-19T05:16:48;6.30;;;5.00;;
8632;SDS011;4354;49.832;10.746;2023-11-19T05:19:15;6.83;;;5.90;;
8632;SDS011;4354;49.832;10.746;2023-11-19T05:21:42;7.80;;;6.93;;
8632;SDS011;4354;49.832;10.746;2023-11-19T05:24:10;8.83;;;7.27;;
8632;SDS011;4354;49.832;10.746;2023-11-19T05:26:38;9.70;;;7.30;;
8632;SDS011;4354;49.832;10.746;2023-11-19T05:29:05;8.03;;;6.50;;
8632;SDS011;4354;49.832;10.746;2023-11-19T05:31:32;7.47;;;5.73;;
8632;SDS011;4354;49.832;10.746;2023-11-19T05:34:02;9.73;;;7.13;;
8632;SDS011;4354;49.832;10.746;2023-11-19T05:36:30;9.10;;;7.20;;
8632;SDS011;4354;49.832;10.746;2023-11-19T05:38:57;10.00;;;7.83;;
8632;SDS011;4354;49.832;10.746;2023-11-19T05:41:23;8.33;;;7.20;;
8632;SDS011;4354;49.832;10.746;2023-11-19T05:43:50;11.43;;;8.03;;
8632;SDS011;4354;49.832;10.746;2023-11-19T05:46:17;17.50;;;9.30;;
8632;SDS011;4354;49.832;10.746;2023-11-19T05:48:46;11.57;;;7.70;;
8632;SDS011;4354;49.832;10.746;2023-11-19T05:51:13;10.07;;;7.37;;
8632;SDS011;4354;49.832;10.746;2023-11-19T05:53:43;8.67;;;6.80;;
8632;SDS011;4354;49.832;10.746;2023-11-19T05:56:12;9.23;;;7.07;;
8632;SDS011;4354;49.832;10.746;2023-11-19T05:58:39;8.77;;;6.13;;
8632;SDS011;4354;49.832;10.746;2023-11-19T06:01:06;7.37;;;5.30;;
8632;SDS011;4354;49.832;10.746;2023-11-19T06:03:34;8.13;;;6.30;;
8632;SDS011;4354;49.832;10.746;2023-11-19T06:06:03;9.47;;;7.30;;
8632;SDS011;4354;49.832;10.746;2023-11-19T06:08:31;9.37;;;7.57;;
8632;SDS011;4354;49.832;10.746;2023-11-19T06:10:58;11.00;;;8.53;;
8632;SDS011;4354;49.832;10.746;2023-11-19T06:13:27;7.63;;;6.10;;
8632;SDS011;4354;49.832;10.746;2023-11-19T06:15:54;7.23;;;5.80;;
8632;SDS011;4354;49.832;10.746;2023-11-19T06:18:20;3.97;;;3.57;;
8632;SDS011;4354;49.832;10.746;2023-11-19T06:20:49;4.27;;;3.43;;
8632;SDS011;4354;49.832;10.746;2023-11-19T06:23:16;4.37;;;3.90;;
8632;SDS011;4354;49.832;10.746;2023-11-19T06:25:43;3.50;;;3.20;;
8632;SDS011;4354;49.832;10.746;2023-11-19T06:28:09;4.17;;;3.77;;
8632;SDS011;4354;49.832;10.746;2023-11-19T06:30:36;9.63;;;7.70;;
8632;SDS011;4354;49.832;10.746;2023-11-19T06:33:03;7.23;;;6.53;;
8632;SDS011;4354;49.832;10.746;2023-11-19T06:35:30;8.63;;;7.03;;
8632;SDS011;4354;49.832;10.746;2023-11-19T06:38:03;7.63;;;6.77;;
8632;SDS011;4354;49.832;10.746;2023-11-19T06:40:31;8.60;;;7.30;;
8632;SDS011;4354;49.832;10.746;2023-11-19T06:42:59;5.37;;;3.77;;
8632;SDS011;4354;49.832;10.746;2023-11-19T06:45:26;3.80;;;3.33;;
8632;SDS011;4354;49.832;10.746;2023-11-19T06:47:53;3.80;;;3.40;;
8632;SDS011;4354;49.832;10.746;2023-11-19T06:50:19;3.83;;;3.10;;
8632;SDS011;4354;49.832;10.746;2023-11-19T06:52:46;4.83;;;4.20;;
8632;SDS011;4354;49.832;10.746;2023-11-19T06:55:13;5.60;;;4.20;;
8632;SDS011;4354;49.832;10.746;2023-11-19T06:57:40;4.13;;;3.30;;
8632;SDS011;4354;49.832;10.746;2023-11-19T07:00:07;2.80;;;2.60;;
8632;SDS011;4354;49.832;10.746;2023-11-19T07:02:35;1.80;;;1.60;;
8632;SDS011;4354;49.832;10.746;2023-11-19T07:05:02;2.27;;;2.07;;
8632;SDS011;4354;49.832;10.746;2023-11-19T07:07:34;3.83;;;2.10;;
8632;SDS011;4354;49.832;10.746;2023-11-19T07:10:02;1.60;;;1.50;;
8632;SDS011;4354;49.832;10.746;2023-11-19T07:12:30;1.87;;;1.77;;
8632;SDS011;4354;49.832;10.746;2023-11-19T07:14:57;2.50;;;2.30;;
8632;SDS011;4354;49.832;10.746;2023-11-19T07:17:24;2.27;;;2.07;;
8632;SDS011;4354;49.832;10.746;2023-11-19T07:19:51;3.30;;;2.17;;
8632;SDS011;4354;49.832;10.746;2023-11-19T07:22:18;4.30;;;2.20;;
8632;SDS011;4354;49.832;10.746;2023-11-19T07:24:44;2.73;;;2.40;;
8632;SDS011;4354;49.832;10.746;2023-11-19T07:27:11;3.20;;;2.90;;
8632;SDS011;4354;49.832;10.746;2023-11-19T07:29:39;3.20;;;2.90;;
8632;SDS011;4354;49.832;10.746;2023-11-19T07:32:05;3.63;;;2.70;;
8632;SDS011;4354;49.832;10.746;2023-11-19T07:34:33;3.47;;;2.80;;
8632;SDS011;4354;49.832;10.746;2023-11-19T07:37:00;3.03;;;2.73;;
8632;SDS011;4354;49.832;10.746;2023-11-19T07:39:29;2.53;;;2.33;;
8632;SDS011;4354;49.832;10.746;2023-11-19T07:41:56;2.67;;;2.47;;
8632;SDS011;4354;49.832;10.746;2023-11-19T07:44:23;3.40;;;3.10;;
8632;SDS011;4354;49.832;10.746;2023-11-19T07:46:50;3.00;;;2.80;;
8632;SDS011;4354;49.832;10.746;2023-11-19T07:49:17;3.03;;;2.77;;
8632;SDS011;4354;49.832;10.746;2023-11-19T07:51:44;4.30;;;3.90;;
8632;SDS011;4354;49.832;10.746;2023-11-19T07:54:11;3.40;;;3.10;;
8632;SDS011;4354;49.832;10.746;2023-11-19T07:56:37;5.10;;;4.70;;
8632;SDS011;4354;49.832;10.746;2023-11-19T07:59:05;4.97;;;4.57;;
8632;SDS011;4354;49.832;10.746;2023-11-19T08:01:32;5.90;;;5.17;;
8632;SDS011;4354;49.832;10.746;2023-11-19T08:03:59;8.07;;;6.37;;
8632;SDS011;4354;49.832;10.746;2023-11-19T08:06:28;6.20;;;5.33;;
8632;SDS011;4354;49.832;10.746;2023-11-19T08:08:55;5.67;;;5.13;;
8632;SDS011;4354;49.832;10.746;2023-11-19T08:11:22;5.70;;;5.20;;
8632;SDS011;4354;49.832;10.746;2023-11-19T08:13:49;3.73;;;3.43;;
8632;SDS011;4354;49.832;10.746;2023-11-19T08:16:16;5.37;;;4.87;;
8632;SDS011;4354;49.832;10.746;2023-11-19T08:18:43;4.87;;;4.47;;
8632;SDS011;4354;49.832;10.746;2023-11-19T08:21:10;4.77;;;4.33;;
8632;SDS011;4354;49.832;10.746;2023-11-19T08:23:37;5.37;;;4.87;;
8632;SDS011;4354;49.832;10.746;2023-11-19T08:26:05;4.90;;;4.40;;
8632;SDS011;4354;49.832;10.746;2023-11-19T08:28:32;4.53;;;4.13;;
8632;SDS011;4354;49.832;10.746;2023-11-19T08:31:01;2.83;;;2.53;;
8632;SDS011;4354;49.832;10.746;2023-11-19T08:33:31;2.80;;;2.60;;
8632;SDS011;4354;49.832;10.746;2023-11-19T08:35:58;3.90;;;2.53;;
8632;SDS011;4354;49.832;10.746;2023-11-19T08:38:25;2.83;;;2.10;;
8632;SDS011;4354;49.832;10.746;2023-11-19T08:40:54;4.40;;;2.50;;
8632;SDS011;4354;49.832;10.746;2023-11-19T08:43:26;3.20;;;2.17;;
8632;SDS011;4354;49.832;10.746;2023-11-19T08:45:53;2.23;;;1.77;;
8632;SDS011;4354;49.832;10.746;2023-11-19T08:48:20;3.67;;;1.80;;
8632;SDS011;4354;49.832;10.746;2023-11-19T08:50:47;1.10;;;1.00;;
8632;SDS011;4354;49.832;10.746;2023-11-19T08:53:14;1.30;;;1.13;;
8632;SDS011;4354;49.832;10.746;2023-11-19T08:55:41;1.53;;;1.30;;
8632;SDS011;4354;49.832;10.746;2023-11-19T08:58:08;1.10;;;1.00;;
8632;SDS011;4354;49.832;10.746;2023-11-19T09:00:35;1.27;;;1.17;;
8632;SDS011;4354;49.832;10.746;2023-11-19T09:03:02;1.50;;;1.40;;
8632;SDS011;4354;49.832;10.746;2023-11-19T09:05:30;1.50;;;1.40;;
8632;SDS011;4354;49.832;10.746;2023-11-19T09:07:57;1.60;;;1.50;;
8632;SDS011;4354;49.832;10.746;2023-11-19T09:10:24;3.60;;;1.43;;
8632;SDS011;4354;49.832;10.746;2023-11-19T09:12:51;2.60;;;2.07;;
8632;SDS011;4354;49.832;10.746;2023-11-19T09:15:20;1.20;;;1.10;;
8632;SDS011;4354;49.832;10.746;2023-11-19T09:17:47;2.50;;;1.60;;
8632;SDS011;4354;49.832;10.746;2023-11-19T09:20:14;1.57;;;1.40;;
8632;SDS011;4354;49.832;10.746;2023-11-19T09:22:42;1.40;;;1.30;;
8632;SDS011;4354;49.832;10.746;2023-11-19T09:25:08;1.77;;;1.67;;
8632;SDS011;4354;49.832;10.746;2023-11-19T09:27:35;1.47;;;1.33;;
8632;SDS011;4354;49.832;10.746;2023-11-19T09:30:03;2.13;;;1.93;;
8632;SDS011;4354;49.832;10.746;2023-11-19T09:32:30;1.63;;;1.20;;
8632;SDS011;4354;49.832;10.746;2023-11-19T09:34:58;1.23;;;0.93;;
8632;SDS011;4354;49.832;10.746;2023-11-19T09:37:24;1.30;;;1.20;;
8632;SDS011;4354;49.832;10.746;2023-11-19T09:39:51;1.40;;;1.30;;
8632;SDS011;4354;49.832;10.746;2023-11-19T09:42:19;2.67;;;1.70;;
8632;SDS011;4354;49.832;10.746;2023-11-19T09:44:47;2.50;;;2.10;;
8632;SDS011;4354;49.832;10.746;2023-11-19T09:47:15;4.13;;;3.20;;
8632;SDS011;4354;49.832;10.746;2023-11-19T09:49:43;3.70;;;2.63;;
8632;SDS011;4354;49.832;10.746;2023-11-19T09:52:10;4.23;;;2.50;;
8632;SDS011;4354;49.832;10.746;2023-11-19T09:54:37;3.15;;;2.05;;
8632;SDS011;4354;49.832;10.746;2023-11-19T09:57:04;2.35;;;1.88;;
8632;SDS011;4354;49.832;10.746;2023-11-19T09:59:34;4.53;;;1.88;;
8632;SDS011;4354;49.832;10.746;2023-11-19T10:02:01;2.45;;;1.45;;
8632;SDS011;4354;49.832;10.746;2023-11-19T10:04:29;2.92;;;1.30;;
8632;SDS011;4354;49.832;10.746;2023-11-19T10:06:59;1.77;;;1.27;;
8632;SDS011;4354;49.832;10.746;2023-11-19T10:09:26;2.00;;;1.30;;
8632;SDS011;4354;49.832;10.746;2023-11-19T10:11:53;2.70;;;1.10;;
8632;SDS011;4354;49.832;10.746;2023-11-19T10:14:20;4.63;;;1.20;;
8632;SDS011;4354;49.832;10.746;2023-11-19T10:16:50;3.17;;;1.08;;
8632;SDS011;4354;49.832;10.746;2023-11-19T10:19:20;2.63;;;1.30;;
8632;SDS011;4354;49.832;10.746;2023-11-19T10:21:47;3.67;;;1.05;;
8632;SDS011;4354;49.832;10.746;2023-11-19T10:24:14;1.70;;;1.05;;
8632;SDS011;4354;49.832;10.746;2023-11-19T10:26:56;3.28;;;1.00;;
8632;SDS011;4354;49.832;10.746;2023-11-19T10:29:23;2.60;;;1.00;;
8632;SDS011;4354;49.832;10.746;2023-11-19T10:31:59;3.15;;;1.60;;
8632;SDS011;4354;49.832;10.746;2023-11-19T10:34:46;4.20;;;1.95;;
8632;SDS011;4354;49.832;10.746;2023-11-19T10:37:26;2.95;;;1.48;;
8632;SDS011;4354;49.832;10.746;2023-11-19T10:39:55;2.17;;;1.05;;
8632;SDS011;4354;49.832;10.746;2023-11-19T10:42:22;3.15;;;0.90;;
8632;SDS011;4354;49.832;10.746;2023-11-19T10:44:49;2.97;;;1.20;;
8632;SDS011;4354;49.832;10.746;2023-11-19T10:47:18;1.90;;;1.00;;
8632;SDS011;4354;49.832;10.746;2023-11-19T10:50:02;3.20;;;1.25;;
8632;SDS011;4354;49.832;10.746;2023-11-19T10:52:29;2.65;;;1.17;;
8632;SDS011;4354;49.832;10.746;2023-11-19T10:54:56;4.07;;;1.30;;
8632;SDS011;4354;49.832;10.746;2023-11-19T10:57:28;3.75;;;1.30;;
8632;SDS011;4354;49.832;10.746;2023-11-19T11:00:00;3.83;;;1.35;;
8632;SDS011;4354;49.832;10.746;2023-11-19T11:02:30;4.18;;;1.23;;
8632;SDS011;4354;49.832;10.746;2023-11-19T11:05:04;2.55;;;1.80;;
8632;SDS011;4354;49.832;10.746;2023-11-19T11:07:32;6.57;;;1.88;;
8632;SDS011;4354;49.832;10.746;2023-11-19T11:10:07;4.45;;;1.52;;
8632;SDS011;4354;49.832;10.746;2023-11-19T11:12:36;3.38;;;1.10;;
8632;SDS011;4354;49.832;10.746;2023-11-19T11:15:08;2.25;;;1.55;;
8632;SDS011;4354;49.832;10.746;2023-11-19T11:17:40;2.90;;;1.13;;
8632;SDS011;4354;49.832;10.746;2023-11-19T11:20:09;2.40;;;0.90;;
8632;SDS011;4354;49.832;10.746;2023-11-19T11:22:51;3.63;;;1.20;;
8632;SDS011;4354;49.832;10.746;2023-11-19T11:34:41;4.63;;;1.60;;
8632;SDS011;4354;49.832;10.746;2023-11-19T11:37:34;2.25;;;1.10;;
8632;SDS011;4354;49.832;10.746;2023-11-19T11:40:15;3.63;;;1.38;;
8632;SDS011;4354;49.832;10.746;2023-11-19T11:42:43;1.98;;;1.05;;
8632;SDS011;4354;49.832;10.746;2023-11-19T11:45:13;3.38;;;0.80;;
8632;SDS011;4354;49.832;10.746;2023-11-19T11:57:54;3.17;;;1.70;;
8632;SDS011;4354;49.832;10.746;2023-11-19T12:00:38;3.40;;;1.40;;
8632;SDS011;4354;49.832;10.746;2023-11-19T12:03:06;4.50;;;1.70;;
8632;SDS011;4354;49.832;10.746;2023-11-19T12:05:45;6.80;;;1.70;;
8632;SDS011;4354;49.832;10.746;2023-11-19T12:08:14;4.75;;;1.63;;
8632;SDS011;4354;49.832;10.746;2023-11-19T12:10:45;2.90;;;1.30;;
8632;SDS011;4354;49.832;10.746;2023-11-19T12:13:17;3.78;;;1.40;;
8632;SDS011;4354;49.832;10.746;2023-11-19T12:16:09;4.82;;;1.77;;
8632;SDS011;4354;49.832;10.746;2023-11-19T12:18:35;5.85;;;1.70;;
8632;SDS011;4354;49.832;10.746;2023-11-19T12:21:04;4.45;;;1.80;;
8632;SDS011;4354;49.832;10.746;2023-11-19T12:23:32;5.07;;;2.13;;
8632;SDS011;4354;49.832;10.746;2023-11-19T12:25:59;6.13;;;2.53;;
8632;SDS011;4354;49.832;10.746;2023-11-19T12:28:26;5.65;;;2.20;;
8632;SDS011;4354;49.832;10.746;2023-11-19T12:30:54;4.93;;;1.70;;
8632;SDS011;4354;49.832;10.746;2023-11-19T12:33:35;4.70;;;2.22;;
8632;SDS011;4354;49.832;10.746;2023-11-19T12:36:02;7.10;;;2.58;;
8632;SDS011;4354;49.832;10.746;2023-11-19T12:38:31;5.55;;;1.92;;
8632;SDS011;4354;49.832;10.746;2023-11-19T12:41:02;6.85;;;2.05;;
8632;SDS011;4354;49.832;10.746;2023-11-19T12:43:29;3.78;;;1.92;;
8632;SDS011;4354;49.832;10.746;2023-11-19T12:45:56;3.47;;;1.38;;
8632;SDS011;4354;49.832;10.746;2023-11-19T12:48:23;4.35;;;1.60;;
8632;SDS011;4354;49.832;10.746;2023-11-19T12:50:57;4.97;;;1.83;;
8632;SDS011;4354;49.832;10.746;2023-11-19T12:53:26;7.53;;;2.03;;
8632;SDS011;4354;49.832;10.746;2023-11-19T12:55:53;2.97;;;1.65;;
8632;SDS011;4354;49.832;10.746;2023-11-19T12:58:35;3.45;;;1.77;;
8632;SDS011;4354;49.832;10.746;2023-11-19T13:01:03;5.72;;;2.30;;
8632;SDS011;4354;49.832;10.746;2023-11-19T13:03:32;6.38;;;2.78;;
8632;SDS011;4354;49.832;10.746;2023-11-19T13:06:07;4.82;;;2.63;;
8632;SDS011;4354;49.832;10.746;2023-11-19T13:08:50;5.07;;;2.20;;
8632;SDS011;4354;49.832;10.746;2023-11-19T13:11:32;6.55;;;3.00;;
8632;SDS011;4354;49.832;10.746;2023-11-19T13:14:04;5.68;;;3.28;;
8632;SDS011;4354;49.832;10.746;2023-11-19T13:16:32;5.28;;;3.40;;
8632;SDS011;4354;49.832;10.746;2023-11-19T13:18:59;5.25;;;2.35;;
8632;SDS011;4354;49.832;10.746;2023-11-19T13:21:27;5.10;;;1.83;;
8632;SDS011;4354;49.832;10.746;2023-11-19T13:23:53;4.13;;;2.47;;
8632;SDS011;4354;49.832;10.746;2023-11-19T13:26:20;2.97;;;1.52;;
8632;SDS011;4354;49.832;10.746;2023-11-19T13:28:47;2.97;;;1.58;;
8632;SDS011;4354;49.832;10.746;2023-11-19T13:31:15;3.03;;;1.40;;
8632;SDS011;4354;49.832;10.746;2023-11-19T13:33:42;3.42;;;1.58;;
8632;SDS011;4354;49.832;10.746;2023-11-19T13:36:09;4.22;;;1.52;;
8632;SDS011;4354;49.832;10.746;2023-11-19T13:38:40;4.70;;;1.40;;
8632;SDS011;4354;49.832;10.746;2023-11-19T13:41:08;5.13;;;1.67;;
8632;SDS011;4354;49.832;10.746;2023-11-19T13:43:36;3.85;;;1.38;;
8632;SDS011;4354;49.832;10.746;2023-11-19T13:46:03;5.30;;;1.67;;
8632;SDS011;4354;49.832;10.746;2023-11-19T13:48:30;3.92;;;2.10;;
8632;SDS011;4354;49.832;10.746;2023-11-19T13:50:57;2.55;;;1.80;;
8632;SDS011;4354;49.832;10.746;2023-11-19T13:53:24;4.40;;;2.08;;
8632;SDS011;4354;49.832;10.746;2023-11-19T13:55:51;2.70;;;1.48;;
8632;SDS011;4354;49.832;10.746;2023-11-19T13:58:18;3.15;;;1.50;;
8632;SDS011;4354;49.832;10.746;2023-11-19T14:00:44;5.03;;;1.20;;
8632;SDS011;4354;49.832;10.746;2023-11-19T14:03:11;4.35;;;1.70;;
8632;SDS011;4354;49.832;10.746;2023-11-19T14:05:38;3.40;;;1.70;;
8632;SDS011;4354;49.832;10.746;2023-11-19T14:08:07;6.68;;;1.60;;
8632;SDS011;4354;49.832;10.746;2023-11-19T14:10:50;3.55;;;1.77;;
8632;SDS011;4354;49.832;10.746;2023-11-19T14:13:17;4.90;;;1.55;;
8632;SDS011;4354;49.832;10.746;2023-11-19T14:15:44;2.35;;;1.55;;
8632;SDS011;4354;49.832;10.746;2023-11-19T14:18:15;5.05;;;2.00;;
8632;SDS011;4354;49.832;10.746;2023-11-19T14:20:42;6.78;;;1.85;;
8632;SDS011;4354;49.832;10.746;2023-11-19T14:23:10;3.95;;;1.92;;
8632;SDS011;4354;49.832;10.746;2023-11-19T14:25:37;3.95;;;1.52;;
8632;SDS011;4354;49.832;10.746;2023-11-19T14:28:04;5.25;;;1.70;;
8632;SDS011;4354;49.832;10.746;2023-11-19T14:30:32;4.53;;;1.50;;
8632;SDS011;4354;49.832;10.746;2023-11-19T14:33:00;6.47;;;1.77;;
8632;SDS011;4354;49.832;10.746;2023-11-19T14:35:27;4.30;;;1.37;;
8632;SDS011;4354;49.832;10.746;2023-11-19T14:37:56;4.65;;;2.22;;
8632;SDS011;4354;49.832;10.746;2023-11-19T14:40:23;4.30;;;1.80;;
8632;SDS011;4354;49.832;10.746;2023-11-19T14:43:08;5.80;;;1.93;;
8632;SDS011;4354;49.832;10.746;2023-11-19T14:45:37;5.18;;;2.05;;
8632;SDS011;4354;49.832;10.746;2023-11-19T14:48:14;4.40;;;1.87;;
8632;SDS011;4354;49.832;10.746;2023-11-19T14:50:41;2.10;;;1.27;;
8632;SDS011;4354;49.832;10.746;2023-11-19T14:53:08;3.93;;;2.00;;
8632;SDS011;4354;49.832;10.746;2023-11-19T14:55:35;3.43;;;1.40;;
8632;SDS011;4354;49.832;10.746;2023-11-19T14:58:02;4.63;;;1.70;;
8632;SDS011;4354;49.832;10.746;2023-11-19T15:00:36;4.50;;;1.50;;
8632;SDS011;4354;49.832;10.746;2023-11-19T15:03:03;3.63;;;1.40;;
8632;SDS011;4354;49.832;10.746;2023-11-19T15:05:30;3.50;;;1.50;;
8632;SDS011;4354;49.832;10.746;2023-11-19T15:07:56;6.30;;;1.50;;
8632;SDS011;4354;49.832;10.746;2023-11-19T15:10:23;4.70;;;1.70;;
8632;SDS011;4354;49.832;10.746;2023-11-19T15:12:51;4.77;;;1.57;;
8632;SDS011;4354;49.832;10.746;2023-11-19T15:15:19;6.40;;;1.97;;
8632;SDS011;4354;49.832;10.746;2023-11-19T15:17:49;3.97;;;2.00;;
8632;SDS011;4354;49.832;10.746;2023-11-19T15:20:16;6.07;;;1.63;;
8632;SDS011;4354;49.832;10.746;2023-11-19T15:22:45;3.53;;;1.43;;
8632;SDS011;4354;49.832;10.746;2023-11-19T15:25:12;3.73;;;1.33;;
8632;SDS011;4354;49.832;10.746;2023-11-19T15:27:39;4.77;;;1.97;;